Time;durP1;ratioP1;P1;durP2;ratioP2;P2;SDS_P1;SDS_P2;PMS_P1;PMS_P2;Temp;Humidity;BMP_temperature;BMP_pressure;BME280_temperature;BME280_humidity;BME280_pressure;Samples;Min_cycle;Max_cycle;Signal;HPM_P1;HPM_P2
2022/11/02 00:01:21;;;;;;;7.28;3.00;;;8.90;94.80;;;;;;5018367;28;20038;-67
2022/11/02 00:03:50;;;;;;;6.97;3.30;;;9.10;95.40;;;;;;5014301;28;20034;-66
2022/11/02 00:06:16;;;;;;;6.18;2.83;;;9.30;96.40;;;;;;5014653;28;20029;-66
2022/11/02 00:08:43;;;;;;;5.60;2.92;;;9.40;97.20;;;;;;5013698;28;20037;-67
2022/11/02 00:11:08;;;;;;;6.07;2.80;;;9.40;97.50;;;;;;5017433;28;20076;-67
2022/11/02 00:13:34;;;;;;;5.18;2.42;;;9.40;97.40;;;;;;5013751;28;20033;-67
2022/11/02 00:16:04;;;;;;;6.70;2.47;;;9.30;97.80;;;;;;5013541;28;20030;-67
2022/11/02 00:18:31;;;;;;;7.30;2.30;;;9.10;97.20;;;;;;5014739;28;20033;-66
2022/11/02 00:20:57;;;;;;;5.35;2.30;;;8.90;96.20;;;;;;5015229;28;20057;-67
2022/11/02 00:23:23;;;;;;;6.85;2.70;;;9.00;95.90;;;;;;5013034;28;20419;-67
2022/11/02 00:25:51;;;;;;;5.70;2.55;;;8.90;96.40;;;;;;5018338;28;20077;-67
2022/11/02 00:28:17;;;;;;;7.80;3.15;;;8.80;95.90;;;;;;5013029;28;20021;-66
2022/11/02 00:30:44;;;;;;;5.60;2.28;;;8.80;95.40;;;;;;5013330;28;20037;-67
2022/11/02 00:33:09;;;;;;;5.15;2.45;;;8.90;95.90;;;;;;5015587;28;20026;-67
2022/11/02 00:35:36;;;;;;;5.45;2.40;;;8.70;96.40;;;;;;5020971;28;20280;-66
2022/11/02 00:38:01;;;;;;;5.75;2.30;;;8.60;95.40;;;;;;5011008;28;20053;-66
2022/11/02 00:40:27;;;;;;;7.07;2.58;;;8.40;94.40;;;;;;5011590;28;20050;-67
2022/11/02 00:42:53;;;;;;;6.07;2.45;;;8.50;93.50;;;;;;5014502;28;20030;-67
2022/11/02 00:45:19;;;;;;;7.85;2.55;;;8.70;93.70;;;;;;5011563;28;20332;-67
2022/11/02 00:47:47;;;;;;;9.02;2.05;;;8.90;95.20;;;;;;5017465;28;20339;-67
2022/11/02 00:50:12;;;;;;;7.43;2.10;;;9.00;96.20;;;;;;5013568;28;20029;-66
2022/11/02 00:52:41;;;;;;;7.40;2.33;;;9.10;96.60;;;;;;5021383;28;20187;-66
2022/11/02 00:55:14;;;;;;;6.63;2.13;;;9.20;97.40;;;;;;5016119;28;20026;-66
2022/11/02 00:57:40;;;;;;;8.13;2.30;;;9.30;97.80;;;;;;5013878;28;20074;-65
2022/11/02 01:00:08;;;;;;;4.85;2.05;;;9.40;98.00;;;;;;5012686;28;20030;-65
2022/11/02 01:02:34;;;;;;;6.47;2.20;;;9.40;98.00;;;;;;5014449;28;20117;-65
2022/11/02 01:05:01;;;;;;;8.40;2.28;;;9.40;98.00;;;;;;5017204;28;20113;-66
2022/11/02 01:07:27;;;;;;;9.65;2.60;;;9.50;98.00;;;;;;5014659;28;20022;-65
2022/11/02 01:09:53;;;;;;;9.27;2.45;;;9.60;98.00;;;;;;5024575;28;20034;-66
2022/11/02 01:12:22;;;;;;;10.02;2.08;;;9.60;98.00;;;;;;5019870;28;20689;-66
2022/11/02 01:14:48;;;;;;;8.93;2.20;;;9.50;98.00;;;;;;5030061;28;20651;-66
2022/11/02 01:17:15;;;;;;;9.93;2.40;;;9.60;98.00;;;;;;5016501;28;20378;-66
2022/11/02 01:19:41;;;;;;;6.82;2.58;;;9.70;98.00;;;;;;5013038;28;20030;-66
2022/11/02 01:22:09;;;;;;;8.52;1.90;;;9.70;98.00;;;;;;5015735;28;20445;-68
2022/11/02 01:24:35;;;;;;;8.35;2.00;;;9.70;98.00;;;;;;5019136;28;20384;-67
2022/11/02 01:27:01;;;;;;;9.02;2.03;;;9.70;98.00;;;;;;5015539;28;20037;-66
2022/11/02 01:29:29;;;;;;;6.35;1.80;;;9.80;98.00;;;;;;5024944;28;20156;-66
2022/11/02 01:31:58;;;;;;;13.15;2.50;;;9.90;98.00;;;;;;5017978;28;20520;-67
2022/11/02 01:34:23;;;;;;;7.05;1.90;;;9.90;98.00;;;;;;5023046;28;20433;-67
2022/11/02 01:36:49;;;;;;;8.38;1.60;;;10.00;98.00;;;;;;5015255;28;20060;-66
2022/11/02 01:39:15;;;;;;;12.57;2.30;;;10.10;98.00;;;;;;5017170;28;20037;-66
2022/11/02 01:41:41;;;;;;;8.90;1.95;;;10.10;98.00;;;;;;5015640;28;20033;-67
2022/11/02 01:44:28;;;;;;;14.20;2.67;;;10.10;98.00;;;;;;5017282;28;20042;-68
2022/11/02 01:47:01;;;;;;;11.05;2.42;;;10.20;98.00;;;;;;5017561;28;20418;-66
2022/11/02 01:49:33;;;;;;;8.70;2.08;;;10.20;97.70;;;;;;5018347;28;20026;-65
2022/11/02 01:52:01;;;;;;;11.40;2.15;;;10.20;97.40;;;;;;5014470;28;20319;-67
2022/11/02 01:54:30;;;;;;;7.80;1.73;;;10.30;97.00;;;;;;5016738;28;20028;-66
2022/11/02 01:57:08;;;;;;;8.07;1.75;;;10.60;96.00;;;;;;5014352;28;20109;-66
2022/11/02 01:59:50;;;;;;;9.98;2.05;;;10.70;95.20;;;;;;5015821;28;20048;-67
2022/11/02 02:02:19;;;;;;;5.85;2.05;;;10.80;94.30;;;;;;5016328;28;20045;-66
2022/11/02 02:04:50;;;;;;;8.38;2.00;;;10.80;94.50;;;;;;5016200;28;20069;-67
2022/11/02 02:07:16;;;;;;;7.57;1.70;;;10.60;94.70;;;;;;5013171;28;20032;-67
2022/11/02 02:09:41;;;;;;;8.63;1.90;;;10.80;94.70;;;;;;5016751;28;20022;-67
2022/11/02 02:12:07;;;;;;;7.38;2.00;;;10.80;94.60;;;;;;5011635;28;20047;-66
2022/11/02 02:14:34;;;;;;;6.25;1.50;;;10.90;94.60;;;;;;5014422;28;20037;-66
2022/11/02 02:17:18;;;;;;;9.15;1.70;;;11.00;94.50;;;;;;5017188;28;20036;-66
2022/11/02 02:19:59;;;;;;;12.07;2.00;;;10.90;94.50;;;;;;5008533;28;20049;-67
2022/11/02 02:22:42;;;;;;;7.10;1.92;;;10.90;94.70;;;;;;5013158;28;20423;-67
2022/11/02 02:25:45;;;;;;;12.70;1.98;;;11.10;94.40;;;;;;5024255;28;20069;-66
2022/11/02 02:28:47;;;;;;;7.95;1.70;;;11.10;94.10;;;;;;5019602;28;20025;-66
2022/11/02 02:31:13;;;;;;;6.82;1.90;;;10.90;94.70;;;;;;5015762;28;20014;-67
2022/11/02 02:33:52;;;;;;;6.25;1.55;;;10.90;94.50;;;;;;5016507;28;20388;-66
2022/11/02 02:36:43;;;;;;;9.80;1.88;;;11.00;94.00;;;;;;5012941;28;20036;-67
2022/11/02 02:39:34;;;;;;;8.60;2.50;;;11.00;93.90;;;;;;5015409;28;20109;-66
2022/11/02 02:42:27;;;;;;;12.07;1.85;;;11.00;93.70;;;;;;5013277;28;20026;-67
2022/11/02 02:45:15;;;;;;;6.75;1.60;;;11.10;92.90;;;;;;5017910;28;20030;-67
2022/11/02 02:47:52;;;;;;;8.52;1.88;;;11.10;92.70;;;;;;5017918;28;20037;-66
2022/11/02 02:50:26;;;;;;;10.30;2.33;;;11.10;92.30;;;;;;5006151;28;20025;-67
2022/11/02 02:52:53;;;;;;;7.55;2.30;;;11.30;91.70;;;;;;5014114;28;20029;-67
2022/11/02 02:55:27;;;;;;;6.32;1.48;;;11.30;91.50;;;;;;5014333;28;20029;-67
2022/11/02 02:57:54;;;;;;;7.80;1.88;;;11.20;91.80;;;;;;5021043;28;20202;-66
2022/11/02 03:00:20;;;;;;;8.48;2.20;;;11.10;91.90;;;;;;5013931;28;20030;-67
2022/11/02 03:02:59;;;;;;;12.23;2.00;;;11.10;91.70;;;;;;5016448;28;20447;-66
2022/11/02 03:05:33;;;;;;;9.23;2.10;;;11.20;91.30;;;;;;5027176;28;20037;-67
2022/11/02 03:08:20;;;;;;;;;;;11.20;91.20;;;;;;5013124;28;20021;-67
2022/11/02 03:11:13;;;;;;;10.60;1.83;;;11.10;91.10;;;;;;5009773;28;20000;-67
2022/11/02 03:13:52;;;;;;;10.75;1.77;;;11.00;91.40;;;;;;5012149;28;20049;-67
2022/11/02 03:16:39;;;;;;;6.65;2.20;;;11.10;91.10;;;;;;5019131;28;20033;-66
2022/11/02 03:19:21;;;;;;;7.78;1.35;;;11.20;91.00;;;;;;5016083;28;20036;-67
2022/11/02 03:22:00;;;;;;;8.27;1.63;;;11.20;90.90;;;;;;5029414;28;20035;-67
2022/11/02 03:24:33;;;;;;;6.40;1.30;;;11.10;91.30;;;;;;5015351;28;20134;-67
2022/11/02 03:27:17;;;;;;;10.23;2.23;;;10.90;91.90;;;;;;5015957;28;20021;-67
2022/11/02 03:30:00;;;;;;;6.22;1.67;;;10.90;92.20;;;;;;5017177;28;20026;-66
2022/11/02 03:32:29;;;;;;;7.25;1.63;;;10.90;92.30;;;;;;5013795;28;20457;-66
2022/11/02 03:34:58;;;;;;;8.90;1.83;;;10.90;92.20;;;;;;5021395;28;20041;-67
2022/11/02 03:37:44;;;;;;;9.30;1.77;;;10.80;92.60;;;;;;5015199;28;20034;-67
2022/11/02 03:40:23;;;;;;;6.95;2.33;;;10.80;92.60;;;;;;5027187;28;20030;-67
2022/11/02 03:42:51;;;;;;;6.93;2.08;;;10.70;93.50;;;;;;5012590;28;20342;-67
2022/11/02 03:45:21;;;;;;;5.20;1.45;;;10.60;93.70;;;;;;5030968;28;20041;-68
2022/11/02 03:47:54;;;;;;;7.03;1.50;;;10.60;93.90;;;;;;5015294;28;20033;-67
2022/11/02 03:50:26;;;;;;;7.70;1.90;;;10.40;94.40;;;;;;5017529;28;20029;-67
2022/11/02 03:53:08;;;;;;;6.28;1.80;;;10.30;95.00;;;;;;5013595;28;20309;-65
2022/11/02 03:55:39;;;;;;;8.82;1.75;;;10.10;95.80;;;;;;5014021;28;20030;-65
2022/11/02 03:58:11;;;;;;;7.55;1.80;;;9.80;96.30;;;;;;5016437;28;20030;-64
2022/11/02 04:00:45;;;;;;;7.13;1.60;;;9.70;96.70;;;;;;5011252;28;20033;-65
2022/11/02 04:03:12;;;;;;;;;;;9.70;96.90;;;;;;5017745;28;20040;-65
2022/11/02 04:05:37;;;;;;;5.95;1.52;;;9.70;96.80;;;;;;5013707;28;19917;-66
2022/11/02 04:08:23;;;;;;;10.25;1.80;;;9.60;97.00;;;;;;5012245;28;20088;-67
2022/11/02 04:16:19;;;;;;;6.10;1.45;;;9.60;97.20;;;;;;5015731;28;20315;-67
2022/11/02 04:21:29;;;;;;;7.13;1.75;;;9.50;97.50;;;;;;5013051;28;20746;-66
2022/11/02 04:26:39;;;;;;;6.97;2.05;;;9.70;97.20;;;;;;5012685;28;20074;-68
2022/11/02 04:29:08;;;;;;;6.75;1.92;;;9.70;97.20;;;;;;5015086;28;20367;-67
2022/11/02 04:31:35;;;;;;;6.35;1.98;;;9.70;97.00;;;;;;5020090;28;20025;-66
2022/11/02 04:34:03;;;;;;;7.65;1.83;;;9.80;97.20;;;;;;5012336;28;20034;-67
2022/11/02 04:36:30;;;;;;;6.72;2.33;;;9.70;97.30;;;;;;5012226;28;20053;-67
2022/11/02 04:38:56;;;;;;;7.43;1.95;;;9.60;97.40;;;;;;5012295;28;20038;-66
2022/11/02 04:41:41;;;;;;;8.88;1.75;;;9.50;97.60;;;;;;5016362;28;20022;-66
2022/11/02 04:44:10;;;;;;;4.72;1.60;;;9.70;97.50;;;;;;5017073;28;20057;-66
2022/11/02 04:46:38;;;;;;;7.82;1.70;;;9.70;97.40;;;;;;5017279;28;20113;-67
2022/11/02 04:49:05;;;;;;;9.25;1.95;;;9.70;97.40;;;;;;5021075;28;20036;-67
2022/11/02 04:51:31;;;;;;;7.82;1.60;;;9.70;97.60;;;;;;5025037;28;20029;-67
2022/11/02 04:53:57;;;;;;;9.65;2.20;;;9.60;97.90;;;;;;5018688;28;20038;-66
2022/11/02 04:56:28;;;;;;;9.30;1.98;;;9.70;98.00;;;;;;5021593;28;20057;-67
2022/11/02 04:58:55;;;;;;;9.60;2.05;;;9.70;97.80;;;;;;5025954;28;20029;-67
2022/11/02 05:01:25;;;;;;;8.52;2.20;;;9.70;97.80;;;;;;5014453;28;20026;-66
2022/11/02 05:03:53;;;;;;;5.80;1.73;;;9.60;97.90;;;;;;5015206;28;20034;-65
2022/11/02 05:06:23;;;;;;;8.68;1.98;;;9.70;98.00;;;;;;5012906;28;20033;-66
2022/11/02 05:08:49;;;;;;;7.82;2.30;;;9.70;97.80;;;;;;5015762;28;20322;-66
2022/11/02 05:11:18;;;;;;;8.55;2.22;;;9.70;98.00;;;;;;5015944;28;20339;-66
2022/11/02 05:13:46;;;;;;;11.45;2.05;;;9.70;98.00;;;;;;5016803;28;20058;-66
2022/11/02 05:16:14;;;;;;;8.25;1.80;;;9.60;98.00;;;;;;5010163;28;20037;-67
2022/11/02 05:18:40;;;;;;;7.07;2.17;;;9.70;98.00;;;;;;5024572;28;20033;-67
2022/11/02 05:21:06;;;;;;;9.23;2.30;;;9.60;98.00;;;;;;5021350;28;20092;-67
2022/11/02 05:23:31;;;;;;;5.85;1.77;;;9.60;98.00;;;;;;5020171;28;20029;-67
2022/11/02 05:26:03;;;;;;;10.88;2.17;;;9.90;97.50;;;;;;5017317;28;20465;-67
2022/11/02 05:28:29;;;;;;;7.95;1.70;;;9.90;97.30;;;;;;5017231;28;20030;-67
2022/11/02 05:30:58;;;;;;;7.15;2.00;;;10.00;96.90;;;;;;5015293;28;20100;-67
2022/11/02 05:33:28;;;;;;;7.60;1.73;;;10.00;96.80;;;;;;5014350;28;20033;-67
2022/11/02 05:35:55;;;;;;;9.32;1.98;;;9.90;97.10;;;;;;5016062;28;20088;-67
2022/11/02 05:38:22;;;;;;;8.70;2.10;;;9.90;97.10;;;;;;5015468;28;20029;-67
2022/11/02 05:40:56;;;;;;;12.10;2.20;;;9.80;97.30;;;;;;5015499;28;20037;-68
2022/11/02 05:43:22;;;;;;;8.73;2.03;;;10.10;96.40;;;;;;5015212;28;20040;-66
2022/11/02 05:45:56;;;;;;;9.77;2.22;;;10.20;96.00;;;;;;5015322;28;20430;-67
2022/11/02 05:48:22;;;;;;;;;;;10.20;96.10;;;;;;5013364;28;20030;-67
2022/11/02 05:50:48;;;;;;;6.15;1.90;;;10.10;96.20;;;;;;5016408;28;19952;-67
2022/11/02 05:53:14;;;;;;;7.35;2.33;;;10.00;96.60;;;;;;5014359;28;20050;-67
2022/11/02 05:55:42;;;;;;;12.68;2.45;;;10.00;96.60;;;;;;5015515;28;20389;-67
2022/11/02 05:58:08;;;;;;;9.25;2.55;;;10.00;96.70;;;;;;5013249;28;20026;-67
2022/11/02 06:00:36;;;;;;;14.55;2.80;;;9.90;96.90;;;;;;5015676;28;20038;-67
2022/11/02 06:03:01;;;;;;;8.73;2.20;;;10.00;96.70;;;;;;5014199;28;20385;-67
2022/11/02 06:05:27;;;;;;;8.23;2.03;;;10.00;96.70;;;;;;5017101;28;20026;-67
2022/11/02 06:07:59;;;;;;;10.18;2.40;;;10.00;96.60;;;;;;5016692;28;20041;-67
2022/11/02 06:10:28;;;;;;;10.80;2.30;;;10.00;96.70;;;;;;5016672;28;20368;-67
2022/11/02 06:12:59;;;;;;;19.33;3.88;;;10.00;96.70;;;;;;5016874;28;20029;-67
2022/11/02 06:15:27;;;;;;;9.57;2.10;;;10.00;96.90;;;;;;5013892;28;20034;-67
2022/11/02 06:17:56;;;;;;;12.63;2.35;;;9.90;97.00;;;;;;5019820;28;20433;-67
2022/11/02 06:20:22;;;;;;;10.07;2.00;;;10.10;96.80;;;;;;5011835;28;20034;-67
2022/11/02 06:22:48;;;;;;;9.07;1.95;;;10.40;95.90;;;;;;5011286;28;20033;-67
2022/11/02 06:25:14;;;;;;;13.52;2.35;;;10.40;95.80;;;;;;5014540;28;20103;-67
2022/11/02 06:27:48;;;;;;;9.68;1.90;;;10.60;95.30;;;;;;5015793;28;20148;-67
2022/11/02 06:30:14;;;;;;;9.80;2.28;;;10.60;95.00;;;;;;5012438;28;20378;-67
2022/11/02 06:32:46;;;;;;;12.00;2.50;;;10.60;95.10;;;;;;5011618;28;20026;-67
2022/11/02 06:35:12;;;;;;;10.40;1.90;;;10.70;94.80;;;;;;5013523;28;20411;-67
2022/11/02 06:37:37;;;;;;;14.73;2.15;;;10.80;94.50;;;;;;5009626;28;20058;-67
2022/11/02 06:40:03;;;;;;;7.45;1.88;;;10.80;94.30;;;;;;5015144;28;20319;-67
2022/11/02 06:42:29;;;;;;;10.52;2.00;;;10.80;94.30;;;;;;5015132;28;20036;-66
2022/11/02 06:45:01;;;;;;;10.30;2.50;;;10.80;94.30;;;;;;5015042;28;20042;-67
2022/11/02 06:47:30;;;;;;;13.73;2.72;;;10.80;94.30;;;;;;5009073;28;20025;-65
2022/11/02 06:49:55;;;;;;;14.30;2.63;;;10.90;94.20;;;;;;5012361;28;20044;-66
2022/11/02 06:52:25;;;;;;;10.45;2.22;;;11.00;93.90;;;;;;5013633;28;20022;-66
2022/11/02 06:54:50;;;;;;;7.78;1.70;;;11.20;93.60;;;;;;5009265;28;20034;-66
2022/11/02 06:57:16;;;;;;;9.38;1.92;;;11.30;93.60;;;;;;5002072;28;20112;-72
2022/11/02 06:59:41;;;;;;;8.25;1.83;;;11.50;92.80;;;;;;5012413;28;20097;-67
2022/11/02 07:02:08;;;;;;;16.33;2.95;;;11.70;92.30;;;;;;5016726;28;20101;-68
2022/11/02 07:04:33;;;;;;;13.68;2.47;;;11.70;92.30;;;;;;5015723;28;20080;-68
2022/11/02 07:07:01;;;;;;;11.15;2.40;;;11.80;91.70;;;;;;5015598;28;20026;-67
2022/11/02 07:09:27;;;;;;;11.95;2.25;;;11.90;91.70;;;;;;5014266;28;20022;-68
2022/11/02 07:11:53;;;;;;;9.43;2.25;;;11.90;91.60;;;;;;5016237;28;20018;-68
2022/11/02 07:14:19;;;;;;;15.88;2.40;;;11.90;92.00;;;;;;5015748;28;20105;-68
2022/11/02 07:16:44;;;;;;;10.70;2.15;;;11.80;92.00;;;;;;5016532;28;20022;-68
2022/11/02 07:19:10;;;;;;;11.15;1.83;;;11.80;92.10;;;;;;5016596;28;20021;-67
2022/11/02 07:21:36;;;;;;;11.13;2.47;;;11.70;92.10;;;;;;5006794;28;20033;-68
2022/11/02 07:24:04;;;;;;;10.07;2.10;;;11.80;92.30;;;;;;4996992;28;20060;-68
2022/11/02 07:26:30;;;;;;;10.60;2.13;;;11.90;91.70;;;;;;5011523;28;20061;-68
2022/11/02 07:28:56;;;;;;;15.18;2.38;;;12.00;91.60;;;;;;5009418;28;20061;-66
2022/11/02 07:31:22;;;;;;;12.93;1.92;;;12.00;91.20;;;;;;4996198;28;20092;-67
2022/11/02 07:33:47;;;;;;;8.75;2.17;;;12.20;91.00;;;;;;4995186;28;20113;-66
2022/11/02 07:36:13;;;;;;;10.25;3.13;;;12.20;90.80;;;;;;4994932;28;20466;-67
2022/11/02 07:38:41;;;;;;;11.32;2.38;;;12.30;90.90;;;;;;4999108;28;20180;-67
2022/11/02 07:41:07;;;;;;;12.60;2.72;;;12.30;90.40;;;;;;4995723;28;20034;-65
2022/11/02 07:43:33;;;;;;;10.23;2.35;;;12.30;90.40;;;;;;4997045;28;20030;-64
2022/11/02 07:46:01;;;;;;;11.80;2.03;;;12.30;90.50;;;;;;4996850;28;20029;-65
2022/11/02 07:48:27;;;;;;;9.63;2.03;;;12.30;90.40;;;;;;4996000;28;20097;-65
2022/11/02 07:50:53;;;;;;;8.80;1.83;;;12.20;90.70;;;;;;4993691;28;20109;-65
2022/11/02 07:53:18;;;;;;;10.55;2.10;;;12.20;90.70;;;;;;4994292;28;20029;-67
2022/11/02 07:55:44;;;;;;;11.40;2.30;;;12.20;91.00;;;;;;4997062;28;20105;-67
2022/11/02 07:58:14;;;;;;;11.48;2.10;;;12.20;91.30;;;;;;4995511;28;20384;-68
2022/11/02 08:00:40;;;;;;;10.25;2.38;;;12.20;90.90;;;;;;4996223;28;20034;-66
2022/11/02 08:03:07;;;;;;;8.82;1.88;;;12.20;91.20;;;;;;4992867;28;20069;-67
2022/11/02 08:05:39;;;;;;;11.98;2.22;;;12.20;91.20;;;;;;4995104;28;20073;-67
2022/11/02 08:08:07;;;;;;;11.85;1.95;;;12.20;91.40;;;;;;4978217;28;20741;-66
2022/11/02 08:10:34;;;;;;;9.63;1.90;;;12.20;91.80;;;;;;4974776;28;20053;-66
2022/11/02 08:13:00;;;;;;;11.27;2.38;;;12.20;91.80;;;;;;4975366;28;20323;-68
2022/11/02 08:15:26;;;;;;;10.68;2.33;;;12.20;92.10;;;;;;4975923;28;20036;-66
2022/11/02 08:18:12;;;;;;;10.80;2.25;;;12.20;92.10;;;;;;4993419;28;20030;-67
2022/11/02 08:20:38;;;;;;;11.68;1.90;;;12.30;91.80;;;;;;4996159;28;20030;-67
2022/11/02 08:23:04;;;;;;;12.30;3.85;;;12.30;91.70;;;;;;4998473;28;20042;-67
2022/11/02 08:25:30;;;;;;;12.85;3.95;;;12.40;91.60;;;;;;5011727;28;20327;-67
2022/11/02 08:27:58;;;;;;;12.43;2.95;;;12.60;91.30;;;;;;5018098;28;20026;-67
2022/11/02 08:30:24;;;;;;;11.55;2.42;;;12.60;91.20;;;;;;5019565;28;20036;-67
2022/11/02 08:32:49;;;;;;;10.82;2.35;;;12.40;91.80;;;;;;5020314;28;20033;-67
2022/11/02 08:35:15;;;;;;;12.25;2.10;;;12.50;91.60;;;;;;5019771;28;20406;-68
2022/11/02 08:37:41;;;;;;;8.40;2.03;;;12.60;91.60;;;;;;5017070;28;20037;-68
2022/11/02 08:40:07;;;;;;;8.18;1.85;;;12.60;91.50;;;;;;5019667;28;20029;-68
2022/11/02 08:42:33;;;;;;;5.70;1.55;;;12.50;92.00;;;;;;5019659;28;20026;-67
2022/11/02 08:44:58;;;;;;;10.38;2.65;;;12.60;91.60;;;;;;5019344;28;20045;-68
2022/11/02 08:47:24;;;;;;;9.20;2.15;;;12.70;91.80;;;;;;5019975;28;20033;-67
2022/11/02 08:49:50;;;;;;;22.25;9.75;;;12.70;91.60;;;;;;5020082;28;20026;-68
2022/11/02 08:52:17;;;;;;;11.55;2.17;;;12.70;91.50;;;;;;5015755;28;20045;-67
2022/11/02 08:54:43;;;;;;;10.85;2.50;;;12.70;91.60;;;;;;5016772;28;20033;-67
2022/11/02 08:57:09;;;;;;;6.60;1.85;;;12.70;91.40;;;;;;5018602;28;20327;-67
2022/11/02 08:59:34;;;;;;;10.35;2.80;;;12.70;91.30;;;;;;5017178;28;20433;-68
2022/11/02 09:02:00;;;;;;;8.70;2.88;;;12.80;91.50;;;;;;5016551;28;20044;-67
2022/11/02 09:04:26;;;;;;;11.80;2.38;;;12.70;91.70;;;;;;5016664;28;20030;-67
2022/11/02 09:06:51;;;;;;;11.02;2.53;;;12.60;91.80;;;;;;5012023;28;20030;-67
2022/11/02 09:09:17;;;;;;;14.23;3.75;;;12.40;92.50;;;;;;5011138;28;20033;-67
2022/11/02 09:11:42;;;;;;;10.88;2.95;;;12.40;93.20;;;;;;5015632;28;20034;-66
2022/11/02 09:14:08;;;;;;;15.02;3.35;;;12.30;93.20;;;;;;5014531;28;20030;-67
2022/11/02 09:16:34;;;;;;;8.90;2.50;;;12.30;93.40;;;;;;5017825;28;20041;-66
2022/11/02 09:18:59;;;;;;;9.73;2.58;;;12.20;93.80;;;;;;5017625;28;20137;-67
2022/11/02 09:21:25;;;;;;;13.00;3.13;;;12.30;94.00;;;;;;5017906;28;20244;-67
2022/11/02 09:23:51;;;;;;;12.07;2.97;;;12.30;94.00;;;;;;5021809;28;20033;-67
2022/11/02 09:26:17;;;;;;;15.75;4.15;;;12.30;94.40;;;;;;5037325;28;20037;-67
2022/11/02 09:28:42;;;;;;;13.55;2.92;;;12.30;94.40;;;;;;5022170;28;20566;-67
2022/11/02 09:31:08;;;;;;;14.38;3.03;;;12.40;94.20;;;;;;5018789;28;20064;-67
2022/11/02 09:33:35;;;;;;;10.30;2.45;;;12.50;94.20;;;;;;5018719;28;20105;-67
2022/11/02 09:36:05;;;;;;;13.20;3.17;;;12.80;93.70;;;;;;5018779;28;20300;-67
2022/11/02 09:38:31;;;;;;;11.68;2.58;;;12.90;92.80;;;;;;5017952;28;20021;-67
2022/11/02 09:41:05;;;;;;;12.95;2.80;;;13.10;92.90;;;;;;5019178;28;20045;-67
2022/11/02 09:43:55;;;;;;;10.90;2.80;;;13.30;92.40;;;;;;5015815;28;20412;-65
2022/11/02 09:46:30;;;;;;;11.98;2.88;;;13.40;92.00;;;;;;5018516;28;20315;-65
2022/11/02 09:49:00;;;;;;;13.55;2.80;;;13.80;90.70;;;;;;5018531;28;20373;-65
2022/11/02 09:51:36;;;;;;;12.38;3.40;;;13.80;90.90;;;;;;5017232;28;20160;-65
2022/11/02 09:54:24;;;;;;;12.73;2.35;;;13.60;90.90;;;;;;5018519;28;20025;-67
2022/11/02 09:56:54;;;;;;;9.95;2.53;;;13.60;91.10;;;;;;5018519;28;20038;-67
2022/11/02 09:59:22;;;;;;;12.30;2.67;;;13.80;90.80;;;;;;5017244;28;20088;-67
2022/11/02 10:02:26;;;;;;;8.63;2.08;;;13.90;89.90;;;;;;5018250;28;20352;-67
2022/11/02 10:05:01;;;;;;;6.57;2.20;;;13.90;90.10;;;;;;5018216;28;20030;-67
2022/11/02 10:08:04;;;;;;;12.75;2.50;;;14.20;89.90;;;;;;5017052;28;20026;-67
2022/11/02 10:10:40;;;;;;;9.55;2.10;;;14.30;89.00;;;;;;5018006;28;20026;-67
2022/11/02 10:13:47;;;;;;;10.13;2.17;;;14.00;89.10;;;;;;5014923;28;20029;-67
2022/11/02 10:16:23;;;;;;;8.32;2.05;;;14.10;88.90;;;;;;4995165;28;20041;-67
2022/11/02 10:18:56;;;;;;;9.60;2.13;;;13.80;88.90;;;;;;5017793;28;20042;-66
2022/11/02 10:21:32;;;;;;;8.35;2.15;;;13.80;89.40;;;;;;5016691;28;20053;-66
2022/11/02 10:24:07;;;;;;;9.35;2.22;;;13.80;89.60;;;;;;5017886;28;20029;-67
2022/11/02 10:26:34;;;;;;;6.70;1.90;;;13.80;88.90;;;;;;5016811;28;20096;-67
2022/11/02 10:29:17;;;;;;;10.13;2.10;;;13.90;89.20;;;;;;5015237;28;20037;-67
2022/11/02 10:31:42;;;;;;;10.48;2.05;;;14.10;89.10;;;;;;5017460;28;20026;-67
2022/11/02 10:34:19;;;;;;;8.27;2.20;;;14.30;88.80;;;;;;5029269;28;20327;-66
2022/11/02 10:37:07;;;;;;;9.95;2.05;;;14.40;88.40;;;;;;5016042;28;20287;-67
2022/11/02 10:39:42;;;;;;;8.27;2.28;;;14.30;88.50;;;;;;5015449;28;20080;-67
2022/11/02 10:42:32;;;;;;;7.57;2.00;;;14.20;88.40;;;;;;5019187;28;20384;-66
2022/11/02 10:45:18;;;;;;;11.43;3.00;;;14.20;89.00;;;;;;5017217;28;20109;-67
2022/11/02 10:48:06;;;;;;;8.18;2.33;;;14.10;89.00;;;;;;5016830;28;20025;-67
2022/11/02 10:50:53;;;;;;;8.68;2.22;;;14.20;88.70;;;;;;5017975;28;20026;-67
2022/11/02 10:53:20;;;;;;;6.78;1.90;;;14.10;89.10;;;;;;5015983;28;20017;-67
2022/11/02 10:56:20;;;;;;;10.70;2.20;;;14.20;88.80;;;;;;5017498;28;20449;-66
2022/11/02 10:58:58;;;;;;;10.13;3.58;;;14.40;89.00;;;;;;4997506;28;20026;-67
2022/11/02 11:01:25;;;;;;;8.98;2.10;;;14.80;88.20;;;;;;5001330;28;20029;-67
2022/11/02 11:04:02;;;;;;;11.13;2.88;;;14.80;87.00;;;;;;5017283;28;20431;-67
2022/11/02 11:06:34;;;;;;;15.25;4.03;;;14.80;87.10;;;;;;5019357;28;20874;-67
2022/11/02 11:09:11;;;;;;;15.57;3.20;;;14.80;86.90;;;;;;5015746;28;20037;-67
2022/11/02 11:11:37;;;;;;;13.50;4.55;;;15.00;86.30;;;;;;5016637;28;20148;-66
2022/11/02 11:14:05;;;;;;;9.20;3.88;;;15.10;85.60;;;;;;4997696;28;20033;-67
2022/11/02 11:16:33;;;;;;;8.35;2.22;;;14.90;86.20;;;;;;5001210;28;20108;-67
2022/11/02 11:19:00;;;;;;;20.23;5.35;;;14.70;86.60;;;;;;5016957;28;20037;-67
2022/11/02 11:21:40;;;;;;;14.80;4.22;;;14.70;86.30;;;;;;5016441;28;20036;-67
2022/11/02 11:24:21;;;;;;;6.60;1.75;;;14.80;86.50;;;;;;5016868;28;20048;-67
2022/11/02 11:27:19;;;;;;;7.82;1.70;;;14.70;86.30;;;;;;5015352;28;20026;-66
2022/11/02 11:29:55;;;;;;;9.45;2.50;;;14.90;86.00;;;;;;5016356;28;20038;-67
2022/11/02 11:32:27;;;;;;;15.60;4.50;;;14.70;85.70;;;;;;5018013;28;20033;-67
2022/11/02 11:35:16;;;;;;;18.60;6.25;;;14.60;87.00;;;;;;5016473;28;20083;-67
2022/11/02 11:37:54;;;;;;;14.52;4.40;;;14.60;86.50;;;;;;5013275;28;20025;-67
2022/11/02 11:40:21;;;;;;;18.35;5.85;;;14.70;86.90;;;;;;5022899;28;20025;-67
2022/11/02 11:42:53;;;;;;;12.27;3.15;;;14.60;87.00;;;;;;5014393;28;20124;-67
2022/11/02 11:45:24;;;;;;;18.70;5.55;;;14.50;86.40;;;;;;5014924;28;20045;-66
2022/11/02 11:48:07;;;;;;;16.50;4.88;;;14.40;86.80;;;;;;5016009;28;20105;-66
2022/11/02 11:50:33;;;;;;;17.92;5.03;;;14.30;87.50;;;;;;5016291;28;20084;-66
2022/11/02 11:53:20;;;;;;;52.08;18.05;;;14.30;87.20;;;;;;5014661;28;20029;-67
2022/11/02 11:55:59;;;;;;;26.67;8.10;;;14.20;86.20;;;;;;5016356;28;20033;-66
2022/11/02 11:58:30;;;;;;;14.52;4.80;;;13.80;86.80;;;;;;5004332;28;20647;-66
2022/11/02 12:01:19;;;;;;;10.23;3.13;;;13.70;87.80;;;;;;5016112;28;20041;-66
2022/11/02 12:04:01;;;;;;;10.75;2.55;;;13.60;87.60;;;;;;5015900;28;20108;-66
2022/11/02 12:06:45;;;;;;;21.08;6.43;;;13.50;88.90;;;;;;5015062;28;20021;-66
2022/11/02 12:09:37;;;;;;;15.32;5.32;;;13.40;89.40;;;;;;5016140;28;20021;-66
2022/11/02 12:12:29;;;;;;;15.68;5.20;;;13.60;89.40;;;;;;5016092;28;20124;-66
2022/11/02 12:15:10;;;;;;;27.60;9.88;;;13.80;87.30;;;;;;5013982;28;20026;-67
2022/11/02 12:17:42;;;;;;;14.25;5.88;;;14.00;86.20;;;;;;5009315;28;20036;-66
2022/11/02 12:20:25;;;;;;;9.70;2.90;;;14.40;85.40;;;;;;5013072;28;20104;-66
2022/11/02 12:23:12;;;;;;;14.55;4.13;;;14.80;84.20;;;;;;5015001;28;20033;-66
2022/11/02 12:25:55;;;;;;;11.55;3.33;;;15.10;84.30;;;;;;5015779;28;20312;-66
2022/11/02 12:28:38;;;;;;;9.75;2.28;;;15.30;83.30;;;;;;5015217;28;20130;-66
2022/11/02 12:31:22;;;;;;;11.95;2.75;;;15.80;82.00;;;;;;5016072;28;20022;-66
2022/11/02 12:34:34;;;;;;;10.30;1.93;;;16.10;81.30;;;;;;5015970;28;20022;-66
2022/11/02 12:37:15;;;;;;;11.93;4.15;;;16.10;80.30;;;;;;5014730;28;20268;-65
2022/11/02 12:40:28;;;;;;;10.90;2.30;;;15.80;81.20;;;;;;5015992;28;20018;-64
2022/11/02 12:43:28;;;;;;;7.45;2.17;;;15.80;80.10;;;;;;5015450;28;20034;-65
2022/11/02 12:45:56;;;;;;;8.80;1.75;;;15.70;80.50;;;;;;4996379;28;20038;-64
2022/11/02 12:48:38;;;;;;;11.73;2.08;;;15.90;80.90;;;;;;4996122;28;20081;-65
2022/11/02 12:51:42;;;;;;;7.22;1.92;;;16.00;79.70;;;;;;4996070;28;20089;-65
2022/11/02 12:54:20;;;;;;;8.27;1.83;;;15.90;79.50;;;;;;5011618;28;20112;-68
2022/11/02 12:56:51;;;;;;;6.82;1.83;;;15.70;80.10;;;;;;5013996;28;20033;-67
2022/11/02 12:59:28;;;;;;;12.18;2.30;;;15.80;79.20;;;;;;5014076;28;20053;-66
2022/11/02 13:02:00;;;;;;;14.25;2.70;;;16.00;78.90;;;;;;5018777;28;20038;-66
2022/11/02 13:04:32;;;;;;;7.68;2.00;;;16.10;77.90;;;;;;5018611;28;20037;-67
2022/11/02 13:07:09;;;;;;;8.63;1.55;;;16.10;77.90;;;;;;5017895;28;20033;-66
2022/11/02 13:09:43;;;;;;;5.93;2.00;;;15.70;77.70;;;;;;5018576;28;20025;-66
2022/11/02 13:12:15;;;;;;;6.43;1.70;;;15.30;79.50;;;;;;5020057;28;20109;-66
2022/11/02 13:14:44;;;;;;;8.98;1.67;;;15.30;79.20;;;;;;5018448;28;20105;-66
2022/11/02 13:17:15;;;;;;;9.13;1.70;;;15.50;80.00;;;;;;5018408;28;20037;-66
2022/11/02 13:19:50;;;;;;;9.02;1.75;;;15.40;79.10;;;;;;5018923;28;20030;-66
2022/11/02 13:22:19;;;;;;;5.97;1.88;;;15.30;80.00;;;;;;5019074;28;20355;-66